sensor_id;sensor_type;location;lat;lon;timestamp;pressure;altitude;pressure_sealevel;temperature;humidity
69842;BME280;57138;51.326;-0.068;2023-11-21T00:00:05;99601.63;;;9.17;100.00
69842;BME280;57138;51.326;-0.068;2023-11-21T00:02:38;99602.00;;;9.14;100.00
69842;BME280;57138;51.326;-0.068;2023-11-21T00:05:07;99603.22;;;9.11;100.00
69842;BME280;57138;51.326;-0.068;2023-11-21T00:07:33;99603.69;;;9.15;100.00
69842;BME280;57138;51.326;-0.068;2023-11-21T00:09:58;99606.97;;;9.17;100.00
69842;BME280;57138;51.326;-0.068;2023-11-21T00:12:24;99608.63;;;9.18;100.00
69842;BME280;57138;51.326;-0.068;2023-11-21T00:14:50;99607.34;;;9.14;100.00
69842;BME280;57138;51.326;-0.068;2023-11-21T00:17:15;99609.25;;;9.20;100.00
69842;BME280;57138;51.326;-0.068;2023-11-21T00:19:40;99608.47;;;9.26;100.00
69842;BME280;57138;51.326;-0.068;2023-11-21T00:22:08;99612.34;;;9.24;100.00
69842;BME280;57138;51.326;-0.068;2023-11-21T00:24:34;99613.75;;;9.20;100.00
69842;BME280;57138;51.326;-0.068;2023-11-21T00:27:00;99609.41;;;9.12;100.00
69842;BME280;57138;51.326;-0.068;2023-11-21T00:29:25;99621.31;;;9.16;100.00
69842;BME280;57138;51.326;-0.068;2023-11-21T00:31:51;99625.22;;;9.13;100.00
69842;BME280;57138;51.326;-0.068;2023-11-21T00:34:16;99622.53;;;9.13;100.00
69842;BME280;57138;51.326;-0.068;2023-11-21T00:36:42;99621.31;;;9.16;100.00
69842;BME280;57138;51.326;-0.068;2023-11-21T00:39:07;99631.16;;;9.15;100.00
69842;BME280;57138;51.326;-0.068;2023-11-21T00:41:33;99633.22;;;9.13;100.00
69842;BME280;57138;51.326;-0.068;2023-11-21T00:43:58;99632.38;;;9.13;100.00
69842;BME280;57138;51.326;-0.068;2023-11-21T00:46:25;99641.63;;;9.17;100.00
69842;BME280;57138;51.326;-0.068;2023-11-21T00:48:52;99643.03;;;9.13;100.00
69842;BME280;57138;51.326;-0.068;2023-11-21T00:51:19;99648.38;;;9.13;100.00
69842;BME280;57138;51.326;-0.068;2023-11-21T00:53:44;99646.72;;;9.12;100.00
69842;BME280;57138;51.326;-0.068;2023-11-21T00:56:10;99656.25;;;9.21;100.00
69842;BME280;57138;51.326;-0.068;2023-11-21T00:58:35;99670.22;;;9.23;100.00
69842;BME280;57138;51.326;-0.068;2023-11-21T01:01:01;99650.03;;;9.14;100.00
69842;BME280;57138;51.326;-0.068;2023-11-21T01:03:26;99654.97;;;9.17;100.00
69842;BME280;57138;51.326;-0.068;2023-11-21T01:05:51;99666.72;;;9.23;100.00
69842;BME280;57138;51.326;-0.068;2023-11-21T01:08:17;99664.88;;;9.23;100.00
69842;BME280;57138;51.326;-0.068;2023-11-21T01:10:43;99673.50;;;9.25;100.00
69842;BME280;57138;51.326;-0.068;2023-11-21T01:13:08;99669.19;;;9.24;100.00
69842;BME280;57138;51.326;-0.068;2023-11-21T01:15:34;99677.19;;;9.24;100.00
69842;BME280;57138;51.326;-0.068;2023-11-21T01:17:59;99683.13;;;9.20;100.00
69842;BME280;57138;51.326;-0.068;2023-11-21T01:20:25;99678.34;;;9.15;100.00
69842;BME280;57138;51.326;-0.068;2023-11-21T01:22:51;99677.31;;;9.16;100.00
69842;BME280;57138;51.326;-0.068;2023-11-21T01:25:16;99678.97;;;9.17;100.00
69842;BME280;57138;51.326;-0.068;2023-11-21T01:27:42;99689.06;;;9.22;100.00
69842;BME280;57138;51.326;-0.068;2023-11-21T01:30:08;99679.38;;;9.14;100.00
69842;BME280;57138;51.326;-0.068;2023-11-21T01:32:36;99683.72;;;9.22;100.00
69842;BME280;57138;51.326;-0.068;2023-11-21T01:35:01;99698.09;;;9.21;100.00
69842;BME280;57138;51.326;-0.068;2023-11-21T01:37:27;99692.94;;;9.19;100.00
69842;BME280;57138;51.326;-0.068;2023-11-21T01:39:54;99698.94;;;9.21;100.00
69842;BME280;57138;51.326;-0.068;2023-11-21T01:42:20;99709.22;;;9.24;100.00
69842;BME280;57138;51.326;-0.068;2023-11-21T01:44:46;99707.56;;;9.23;100.00
69842;BME280;57138;51.326;-0.068;2023-11-21T01:47:13;99718.66;;;9.27;100.00
69842;BME280;57138;51.326;-0.068;2023-11-21T01:49:39;99711.88;;;9.24;100.00
69842;BME280;57138;51.326;-0.068;2023-11-21T01:52:05;99715.75;;;9.22;100.00
69842;BME280;57138;51.326;-0.068;2023-11-21T01:54:32;99723.56;;;9.23;100.00
69842;BME280;57138;51.326;-0.068;2023-11-21T01:56:58;99721.09;;;9.22;100.00
69842;BME280;57138;51.326;-0.068;2023-11-21T01:59:30;99733.59;;;9.21;100.00
69842;BME280;57138;51.326;-0.068;2023-11-21T02:01:59;99724.94;;;9.19;100.00
69842;BME280;57138;51.326;-0.068;2023-11-21T02:04:24;99725.66;;;9.28;100.00
69842;BME280;57138;51.326;-0.068;2023-11-21T02:06:50;99733.66;;;9.28;100.00
69842;BME280;57138;51.326;-0.068;2023-11-21T02:09:16;99738.78;;;9.29;100.00
69842;BME280;57138;51.326;-0.068;2023-11-21T02:11:42;99733.06;;;9.32;100.00
69842;BME280;57138;51.326;-0.068;2023-11-21T02:14:08;99739.69;;;9.37;100.00
69842;BME280;57138;51.326;-0.068;2023-11-21T02:16:34;99733.06;;;9.32;100.00
69842;BME280;57138;51.326;-0.068;2023-11-21T02:19:01;99742.59;;;9.42;100.00
69842;BME280;57138;51.326;-0.068;2023-11-21T02:21:27;99749.97;;;9.40;100.00
69842;BME280;57138;51.326;-0.068;2023-11-21T02:23:53;99746.66;;;9.38;100.00
69842;BME280;57138;51.326;-0.068;2023-11-21T02:26:18;99753.06;;;9.43;100.00
69842;BME280;57138;51.326;-0.068;2023-11-21T02:28:45;99751.22;;;9.44;100.00
69842;BME280;57138;51.326;-0.068;2023-11-21T02:31:10;99758.22;;;9.45;100.00
69842;BME280;57138;51.326;-0.068;2023-11-21T02:33:37;99755.34;;;9.46;100.00
69842;BME280;57138;51.326;-0.068;2023-11-21T02:36:03;99755.16;;;9.48;100.00
69842;BME280;57138;51.326;-0.068;2023-11-21T02:38:29;99760.25;;;9.43;100.00
69842;BME280;57138;51.326;-0.068;2023-11-21T02:40:55;99753.91;;;9.44;100.00
69842;BME280;57138;51.326;-0.068;2023-11-21T02:43:20;99765.59;;;9.43;100.00
69842;BME280;57138;51.326;-0.068;2023-11-21T02:45:46;99765.34;;;9.38;100.00
69842;BME280;57138;51.326;-0.068;2023-11-21T02:48:12;99772.91;;;9.34;100.00
69842;BME280;57138;51.326;-0.068;2023-11-21T02:50:37;99772.34;;;9.39;100.00
69842;BME280;57138;51.326;-0.068;2023-11-21T02:53:03;99770.88;;;9.36;100.00
69842;BME280;57138;51.326;-0.068;2023-11-21T02:55:31;99767.56;;;9.34;100.00
69842;BME280;57138;51.326;-0.068;2023-11-21T02:58:00;99765.47;;;9.29;100.00
69842;BME280;57138;51.326;-0.068;2023-11-21T03:00:25;99773.47;;;9.29;100.00
69842;BME280;57138;51.326;-0.068;2023-11-21T03:02:51;99776.34;;;9.28;100.00
69842;BME280;57138;51.326;-0.068;2023-11-21T03:05:16;99796.47;;;9.30;100.00
69842;BME280;57138;51.326;-0.068;2023-11-21T03:07:41;99799.59;;;9.34;100.00
69842;BME280;57138;51.326;-0.068;2023-11-21T03:10:08;99795.56;;;9.23;100.00
69842;BME280;57138;51.326;-0.068;2023-11-21T03:12:37;99802.00;;;9.29;100.00
69842;BME280;57138;51.326;-0.068;2023-11-21T03:15:05;99807.34;;;9.29;100.00
69842;BME280;57138;51.326;-0.068;2023-11-21T03:17:31;99818.81;;;9.29;100.00
69842;BME280;57138;51.326;-0.068;2023-11-21T03:19:56;99817.53;;;9.25;100.00
69842;BME280;57138;51.326;-0.068;2023-11-21T03:22:22;99815.91;;;9.24;100.00
69842;BME280;57138;51.326;-0.068;2023-11-21T03:24:48;99824.91;;;9.23;100.00
69842;BME280;57138;51.326;-0.068;2023-11-21T03:27:14;99824.91;;;9.23;100.00
69842;BME280;57138;51.326;-0.068;2023-11-21T03:29:39;99827.59;;;9.23;100.00
69842;BME280;57138;51.326;-0.068;2023-11-21T03:32:05;99826.59;;;9.24;100.00
69842;BME280;57138;51.326;-0.068;2023-11-21T03:34:32;99823.00;;;9.17;100.00
69842;BME280;57138;51.326;-0.068;2023-11-21T03:36:57;99826.69;;;9.16;100.00
69842;BME280;57138;51.326;-0.068;2023-11-21T03:39:23;99827.72;;;9.15;100.00
69842;BME280;57138;51.326;-0.068;2023-11-21T03:41:51;99826.44;;;9.11;100.00
69842;BME280;57138;51.326;-0.068;2023-11-21T03:44:17;99836.47;;;9.09;100.00
69842;BME280;57138;51.326;-0.068;2023-11-21T03:46:43;99836.28;;;9.10;100.00
69842;BME280;57138;51.326;-0.068;2023-11-21T03:49:09;99834.63;;;9.09;100.00
69842;BME280;57138;51.326;-0.068;2023-11-21T03:51:34;99835.06;;;9.13;100.00
69842;BME280;57138;51.326;-0.068;2023-11-21T03:54:00;99845.09;;;9.11;100.00
69842;BME280;57138;51.326;-0.068;2023-11-21T03:56:25;99849.25;;;9.13;100.00
69842;BME280;57138;51.326;-0.068;2023-11-21T03:58:50;99847.41;;;9.14;100.00
69842;BME280;57138;51.326;-0.068;2023-11-21T04:01:22;99862.19;;;9.16;100.00
69842;BME280;57138;51.326;-0.068;2023-11-21T04:03:51;99860.34;;;9.17;100.00
69842;BME280;57138;51.326;-0.068;2023-11-21T04:06:17;99859.72;;;9.15;100.00
69842;BME280;57138;51.326;-0.068;2023-11-21T04:08:44;99879.03;;;9.17;100.00
69842;BME280;57138;51.326;-0.068;2023-11-21T04:11:10;99879.78;;;9.11;100.00
69842;BME280;57138;51.326;-0.068;2023-11-21T04:13:39;99879.78;;;9.11;100.00
69842;BME280;57138;51.326;-0.068;2023-11-21T04:16:07;99881.81;;;9.09;100.00
69842;BME280;57138;51.326;-0.068;2023-11-21T04:18:34;99889.53;;;9.04;100.00
69842;BME280;57138;51.326;-0.068;2023-11-21T04:21:00;99888.91;;;9.02;100.00
69842;BME280;57138;51.326;-0.068;2023-11-21T04:23:25;99895.91;;;9.03;100.00
69842;BME280;57138;51.326;-0.068;2023-11-21T04:25:51;99898.56;;;9.03;100.00
69842;BME280;57138;51.326;-0.068;2023-11-21T04:28:17;99912.91;;;9.02;100.00
69842;BME280;57138;51.326;-0.068;2023-11-21T04:30:44;99905.81;;;9.09;100.00
69842;BME280;57138;51.326;-0.068;2023-11-21T04:33:10;99905.16;;;9.07;100.00
69842;BME280;57138;51.326;-0.068;2023-11-21T04:35:35;99897.91;;;9.00;100.00
69842;BME280;57138;51.326;-0.068;2023-11-21T04:38:01;99906.38;;;9.04;100.00
69842;BME280;57138;51.326;-0.068;2023-11-21T04:40:26;99911.69;;;9.04;100.00
69842;BME280;57138;51.326;-0.068;2023-11-21T04:42:52;99919.41;;;8.99;100.00
69842;BME280;57138;51.326;-0.068;2023-11-21T04:45:17;99923.19;;;9.05;100.00
69842;BME280;57138;51.326;-0.068;2023-11-21T04:47:43;99922.75;;;9.01;100.00
69842;BME280;57138;51.326;-0.068;2023-11-21T04:50:09;99925.97;;;8.96;100.00
69842;BME280;57138;51.326;-0.068;2023-11-21T04:52:34;99932.56;;;9.00;100.00
69842;BME280;57138;51.326;-0.068;2023-11-21T04:54:59;99932.94;;;8.97;100.00
69842;BME280;57138;51.326;-0.068;2023-11-21T04:57:26;99935.41;;;8.99;100.00
69842;BME280;57138;51.326;-0.068;2023-11-21T04:59:54;99927.59;;;8.97;100.00
69842;BME280;57138;51.326;-0.068;2023-11-21T05:02:19;99947.38;;;9.03;100.00
69842;BME280;57138;51.326;-0.068;2023-11-21T05:04:46;99946.94;;;8.99;100.00
69842;BME280;57138;51.326;-0.068;2023-11-21T05:07:12;99953.09;;;9.00;100.00
69842;BME280;57138;51.326;-0.068;2023-11-21T05:09:42;99961.25;;;8.98;100.00
69842;BME280;57138;51.326;-0.068;2023-11-21T05:12:11;99969.44;;;8.97;100.00
69842;BME280;57138;51.326;-0.068;2023-11-21T05:14:37;99964.94;;;8.97;100.00
69842;BME280;57138;51.326;-0.068;2023-11-21T05:17:03;99969.00;;;8.93;100.00
69842;BME280;57138;51.326;-0.068;2023-11-21T05:19:29;99971.75;;;9.00;100.00
69842;BME280;57138;51.326;-0.068;2023-11-21T05:21:55;99975.69;;;8.89;100.00
69842;BME280;57138;51.326;-0.068;2023-11-21T05:24:20;99960.44;;;8.83;100.00
69842;BME280;57138;51.326;-0.068;2023-11-21T05:26:46;99974.31;;;8.78;100.00
69842;BME280;57138;51.326;-0.068;2023-11-21T05:29:11;99979.09;;;8.83;100.00
69842;BME280;57138;51.326;-0.068;2023-11-21T05:31:37;99977.47;;;8.82;100.00
69842;BME280;57138;51.326;-0.068;2023-11-21T05:34:03;99971.47;;;8.80;100.00
69842;BME280;57138;51.326;-0.068;2023-11-21T05:36:30;99971.19;;;8.75;100.00
69842;BME280;57138;51.326;-0.068;2023-11-21T05:38:55;99972.75;;;8.69;100.00
69842;BME280;57138;51.326;-0.068;2023-11-21T05:41:21;99973.59;;;8.70;100.00
69842;BME280;57138;51.326;-0.068;2023-11-21T05:43:46;99970.63;;;8.64;100.00
69842;BME280;57138;51.326;-0.068;2023-11-21T05:46:11;99974.31;;;8.63;100.00
69842;BME280;57138;51.326;-0.068;2023-11-21T05:48:38;99976.63;;;8.67;100.00
69842;BME280;57138;51.326;-0.068;2023-11-21T05:51:07;99986.34;;;8.59;100.00
69842;BME280;57138;51.326;-0.068;2023-11-21T05:53:36;99982.00;;;8.58;100.00
69842;BME280;57138;51.326;-0.068;2023-11-21T05:56:01;99990.31;;;8.63;100.00
69842;BME280;57138;51.326;-0.068;2023-11-21T05:58:29;99994.34;;;8.59;100.00
69842;BME280;57138;51.326;-0.068;2023-11-21T06:00:54;100007.94;;;8.64;100.00
69842;BME280;57138;51.326;-0.068;2023-11-21T06:03:20;100011.44;;;8.65;100.00
69842;BME280;57138;51.326;-0.068;2023-11-21T06:05:45;100000.66;;;8.58;100.00
69842;BME280;57138;51.326;-0.068;2023-11-21T06:08:11;100011.03;;;8.53;100.00
69842;BME280;57138;51.326;-0.068;2023-11-21T06:10:36;100024.66;;;8.58;100.00
69842;BME280;57138;51.326;-0.068;2023-11-21T06:13:01;100026.75;;;8.48;100.00
69842;BME280;57138;51.326;-0.068;2023-11-21T06:15:29;100026.56;;;8.50;100.00
69842;BME280;57138;51.326;-0.068;2023-11-21T06:17:54;100028.09;;;8.44;100.00
69842;BME280;57138;51.326;-0.068;2023-11-21T06:20:20;100033.06;;;8.47;100.00
69842;BME280;57138;51.326;-0.068;2023-11-21T06:22:47;100044.72;;;8.46;100.00
69842;BME280;57138;51.326;-0.068;2023-11-21T06:25:14;100043.41;;;8.42;100.00
69842;BME280;57138;51.326;-0.068;2023-11-21T06:27:44;100063.38;;;8.46;100.00
69842;BME280;57138;51.326;-0.068;2023-11-21T06:30:11;100063.38;;;8.46;100.00
69842;BME280;57138;51.326;-0.068;2023-11-21T06:32:37;100072.03;;;8.48;100.00
69842;BME280;57138;51.326;-0.068;2023-11-21T06:35:04;100062.75;;;8.44;100.00
69842;BME280;57138;51.326;-0.068;2023-11-21T06:37:32;100058.75;;;8.40;100.00
69842;BME280;57138;51.326;-0.068;2023-11-21T06:39:58;100071.69;;;8.43;100.00
69842;BME280;57138;51.326;-0.068;2023-11-21T06:42:24;100058.09;;;8.38;100.00
69842;BME280;57138;51.326;-0.068;2023-11-21T06:44:50;100074.25;;;8.36;100.00
69842;BME280;57138;51.326;-0.068;2023-11-21T06:47:22;100074.44;;;8.35;100.00
69842;BME280;57138;51.326;-0.068;2023-11-21T06:49:50;100086.28;;;8.32;100.00
69842;BME280;57138;51.326;-0.068;2023-11-21T06:52:15;100082.78;;;8.32;100.00
69842;BME280;57138;51.326;-0.068;2023-11-21T06:54:41;100104.44;;;8.28;100.00
69842;BME280;57138;51.326;-0.068;2023-11-21T06:57:06;100087.00;;;8.26;100.00
69842;BME280;57138;51.326;-0.068;2023-11-21T06:59:33;100104.78;;;8.25;100.00
69842;BME280;57138;51.326;-0.068;2023-11-21T07:01:58;100099.47;;;8.25;100.00
69842;BME280;57138;51.326;-0.068;2023-11-21T07:04:24;100095.34;;;8.23;100.00
69842;BME280;57138;51.326;-0.068;2023-11-21T07:06:51;100110.25;;;8.32;100.00
69842;BME280;57138;51.326;-0.068;2023-11-21T07:09:17;100102.44;;;8.31;100.00
69842;BME280;57138;51.326;-0.068;2023-11-21T07:11:42;100117.13;;;8.26;100.00
69842;BME280;57138;51.326;-0.068;2023-11-21T07:14:08;100119.13;;;8.24;100.00
69842;BME280;57138;51.326;-0.068;2023-11-21T07:16:37;100136.13;;;8.23;100.00
69842;BME280;57138;51.326;-0.068;2023-11-21T07:19:06;100142.25;;;8.24;100.00
69842;BME280;57138;51.326;-0.068;2023-11-21T07:21:36;100141.97;;;8.19;100.00
69842;BME280;57138;51.326;-0.068;2023-11-21T07:24:05;100155.75;;;8.22;100.00
69842;BME280;57138;51.326;-0.068;2023-11-21T07:26:32;100162.44;;;8.18;100.00
69842;BME280;57138;51.326;-0.068;2023-11-21T07:28:59;100169.06;;;8.22;100.00
69842;BME280;57138;51.326;-0.068;2023-11-21T07:31:24;100163.75;;;8.22;100.00
69842;BME280;57138;51.326;-0.068;2023-11-21T07:33:50;100173.22;;;8.25;100.00
69842;BME280;57138;51.326;-0.068;2023-11-21T07:36:16;100175.41;;;8.21;100.00
69842;BME280;57138;51.326;-0.068;2023-11-21T07:38:46;100176.25;;;8.22;100.00
69842;BME280;57138;51.326;-0.068;2023-11-21T07:41:12;100182.91;;;8.18;100.00
69842;BME280;57138;51.326;-0.068;2023-11-21T07:43:41;100186.75;;;8.15;100.00
69842;BME280;57138;51.326;-0.068;2023-11-21T07:46:06;100187.75;;;8.14;100.00
69842;BME280;57138;51.326;-0.068;2023-11-21T07:48:35;100189.25;;;8.17;100.00
69842;BME280;57138;51.326;-0.068;2023-11-21T07:51:03;100207.75;;;8.10;100.00
69842;BME280;57138;51.326;-0.068;2023-11-21T07:53:29;100211.06;;;8.12;100.00
69842;BME280;57138;51.326;-0.068;2023-11-21T07:56:02;100216.41;;;8.12;100.00
69842;BME280;57138;51.326;-0.068;2023-11-21T07:58:28;100208.09;;;8.07;100.00
69842;BME280;57138;51.326;-0.068;2023-11-21T08:00:53;100205.25;;;8.08;100.00
69842;BME280;57138;51.326;-0.068;2023-11-21T08:03:19;100220.56;;;8.06;100.00
69842;BME280;57138;51.326;-0.068;2023-11-21T08:05:44;100226.06;;;8.05;100.00
69842;BME280;57138;51.326;-0.068;2023-11-21T08:08:10;100234.53;;;8.08;100.00
69842;BME280;57138;51.326;-0.068;2023-11-21T08:10:35;100224.75;;;8.01;100.00
69842;BME280;57138;51.326;-0.068;2023-11-21T08:13:01;100236.91;;;8.03;100.00
69842;BME280;57138;51.326;-0.068;2023-11-21T08:15:27;100232.56;;;8.02;100.00
69842;BME280;57138;51.326;-0.068;2023-11-21T08:17:52;100230.91;;;8.01;100.00
69842;BME280;57138;51.326;-0.068;2023-11-21T08:20:18;100242.91;;;7.97;100.00
69842;BME280;57138;51.326;-0.068;2023-11-21T08:22:44;100258.22;;;7.95;100.00
69842;BME280;57138;51.326;-0.068;2023-11-21T08:25:09;100254.53;;;7.96;100.00
69842;BME280;57138;51.326;-0.068;2023-11-21T08:27:35;100256.88;;;7.99;100.00
69842;BME280;57138;51.326;-0.068;2023-11-21T08:30:02;100266.03;;;7.97;100.00
69842;BME280;57138;51.326;-0.068;2023-11-21T08:32:28;100256.56;;;7.94;100.00
69842;BME280;57138;51.326;-0.068;2023-11-21T08:34:55;100252.41;;;7.91;100.00
69842;BME280;57138;51.326;-0.068;2023-11-21T08:37:21;100257.06;;;7.89;100.00
69842;BME280;57138;51.326;-0.068;2023-11-21T08:39:47;100266.03;;;7.97;100.00
69842;BME280;57138;51.326;-0.068;2023-11-21T08:42:13;100278.34;;;7.98;100.00
69842;BME280;57138;51.326;-0.068;2023-11-21T08:44:40;100289.00;;;7.98;100.00
69842;BME280;57138;51.326;-0.068;2023-11-21T08:47:06;100277.03;;;7.94;100.00
69842;BME280;57138;51.326;-0.068;2023-11-21T08:49:31;100289.50;;;8.01;100.00
69842;BME280;57138;51.326;-0.068;2023-11-21T08:51:57;100299.16;;;7.94;100.00
69842;BME280;57138;51.326;-0.068;2023-11-21T08:54:25;100294.31;;;7.98;100.00
69842;BME280;57138;51.326;-0.068;2023-11-21T08:56:51;100301.34;;;7.90;100.00
69842;BME280;57138;51.326;-0.068;2023-11-21T08:59:16;100301.66;;;7.96;100.00
69842;BME280;57138;51.326;-0.068;2023-11-21T09:01:42;100304.97;;;7.98;100.00
69842;BME280;57138;51.326;-0.068;2023-11-21T09:04:08;100304.66;;;7.92;100.00
69842;BME280;57138;51.326;-0.068;2023-11-21T09:06:33;100300.16;;;7.93;100.00
69842;BME280;57138;51.326;-0.068;2023-11-21T09:08:59;100306.97;;;7.96;100.00
69842;BME280;57138;51.326;-0.068;2023-11-21T09:11:24;100308.31;;;7.91;100.00
69842;BME280;57138;51.326;-0.068;2023-11-21T09:13:52;100321.63;;;7.91;100.00
69842;BME280;57138;51.326;-0.068;2023-11-21T09:16:20;100330.28;;;7.94;100.00
69842;BME280;57138;51.326;-0.068;2023-11-21T09:18:46;100316.97;;;7.94;100.00
69842;BME280;57138;51.326;-0.068;2023-11-21T09:21:11;100324.28;;;7.91;100.00
69842;BME280;57138;51.326;-0.068;2023-11-21T09:23:37;100336.91;;;7.98;100.00
69842;BME280;57138;51.326;-0.068;2023-11-21T09:26:02;100327.94;;;7.99;100.00
69842;BME280;57138;51.326;-0.068;2023-11-21T09:28:28;100331.78;;;8.04;100.00
69842;BME280;57138;51.326;-0.068;2023-11-21T09:30:54;100340.94;;;7.94;100.00
69842;BME280;57138;51.326;-0.068;2023-11-21T09:33:19;100338.75;;;7.97;100.00
69842;BME280;57138;51.326;-0.068;2023-11-21T09:35:47;100335.75;;;8.00;100.00
69842;BME280;57138;51.326;-0.068;2023-11-21T09:38:13;100356.56;;;8.05;100.00
69842;BME280;57138;51.326;-0.068;2023-11-21T09:40:39;100353.56;;;8.08;100.00
69842;BME280;57138;51.326;-0.068;2023-11-21T09:43:09;100344.56;;;8.09;100.00
69842;BME280;57138;51.326;-0.068;2023-11-21T09:45:45;100355.22;;;8.09;100.00
69842;BME280;57138;51.326;-0.068;2023-11-21T09:48:11;100350.56;;;8.11;100.00
69842;BME280;57138;51.326;-0.068;2023-11-21T09:50:39;100355.03;;;8.19;100.00
69842;BME280;57138;51.326;-0.068;2023-11-21T09:53:18;100359.84;;;8.23;100.00
69842;BME280;57138;51.326;-0.068;2023-11-21T09:55:53;100350.53;;;8.19;100.00
69842;BME280;57138;51.326;-0.068;2023-11-21T09:58:20;100367.16;;;8.30;100.00
69842;BME280;57138;51.326;-0.068;2023-11-21T10:00:48;100360.69;;;8.32;100.00
69842;BME280;57138;51.326;-0.068;2023-11-21T10:03:15;100352.34;;;8.35;100.00
69842;BME280;57138;51.326;-0.068;2023-11-21T10:05:42;100361.16;;;8.44;100.00
69842;BME280;57138;51.326;-0.068;2023-11-21T10:08:10;100368.78;;;8.55;100.00
69842;BME280;57138;51.326;-0.068;2023-11-21T10:10:37;100364.13;;;8.57;100.00
69842;BME280;57138;51.326;-0.068;2023-11-21T10:13:06;100371.78;;;8.60;100.00
69842;BME280;57138;51.326;-0.068;2023-11-21T10:15:33;100370.41;;;8.64;100.00
69842;BME280;57138;51.326;-0.068;2023-11-21T10:18:01;100370.06;;;8.68;100.00
69842;BME280;57138;51.326;-0.068;2023-11-21T10:20:28;100370.41;;;8.73;100.00
69842;BME280;57138;51.326;-0.068;2023-11-21T10:22:54;100371.88;;;8.75;100.00
69842;BME280;57138;51.326;-0.068;2023-11-21T10:25:22;100376.69;;;8.80;100.00
69842;BME280;57138;51.326;-0.068;2023-11-21T10:27:48;100376.03;;;8.78;100.00
69842;BME280;57138;51.326;-0.068;2023-11-21T10:30:17;100388.03;;;8.82;100.00
69842;BME280;57138;51.326;-0.068;2023-11-21T10:32:43;100387.34;;;8.80;100.00
69842;BME280;57138;51.326;-0.068;2023-11-21T10:35:09;100372.72;;;8.76;100.00
69842;BME280;57138;51.326;-0.068;2023-11-21T10:37:36;100378.75;;;8.70;100.00
69842;BME280;57138;51.326;-0.068;2023-11-21T10:40:06;100400.00;;;8.86;100.00
69842;BME280;57138;51.326;-0.068;2023-11-21T10:42:32;100384.34;;;8.83;100.00
69842;BME280;57138;51.326;-0.068;2023-11-21T10:44:58;100389.00;;;8.89;100.00
69842;BME280;57138;51.326;-0.068;2023-11-21T10:47:23;100391.13;;;8.94;100.00
69842;BME280;57138;51.326;-0.068;2023-11-21T10:49:49;100382.31;;;8.93;100.00
69842;BME280;57138;51.326;-0.068;2023-11-21T10:52:15;100386.94;;;8.99;100.00
69842;BME280;57138;51.326;-0.068;2023-11-21T10:54:46;100382.25;;;9.02;100.00
69842;BME280;57138;51.326;-0.068;2023-11-21T10:57:17;100396.25;;;9.04;100.00
69842;BME280;57138;51.326;-0.068;2023-11-21T10:59:47;100398.28;;;9.02;100.00
69842;BME280;57138;51.326;-0.068;2023-11-21T11:02:23;100395.59;;;9.02;100.00
69842;BME280;57138;51.326;-0.068;2023-11-21T11:04:52;100402.59;;;9.03;100.00
69842;BME280;57138;51.326;-0.068;2023-11-21T11:07:17;100392.94;;;9.02;100.00
69842;BME280;57138;51.326;-0.068;2023-11-21T11:09:44;100387.59;;;9.02;100.00
69842;BME280;57138;51.326;-0.068;2023-11-21T11:12:10;100377.56;;;9.04;100.00
69842;BME280;57138;51.326;-0.068;2023-11-21T11:14:40;100384.25;;;9.08;100.00
69842;BME280;57138;51.326;-0.068;2023-11-21T11:17:07;100389.22;;;9.11;100.00
69842;BME280;57138;51.326;-0.068;2023-11-21T11:19:34;100409.41;;;9.13;100.00
69842;BME280;57138;51.326;-0.068;2023-11-21T11:25:30;100397.19;;;9.19;100.00
69842;BME280;57138;51.326;-0.068;2023-11-21T11:30:51;100400.34;;;9.23;100.00
69842;BME280;57138;51.326;-0.068;2023-11-21T11:38:36;100404.47;;;9.25;100.00
69842;BME280;57138;51.326;-0.068;2023-11-21T11:41:03;100399.16;;;9.25;100.00
69842;BME280;57138;51.326;-0.068;2023-11-21T11:43:29;100414.81;;;9.28;100.00
69842;BME280;57138;51.326;-0.068;2023-11-21T11:45:58;100415.81;;;9.27;100.00
69842;BME280;57138;51.326;-0.068;2023-11-21T11:48:25;100409.81;;;9.25;100.00
69842;BME280;57138;51.326;-0.068;2023-11-21T11:51:04;100416.34;;;9.23;100.00
69842;BME280;57138;51.326;-0.068;2023-11-21T11:53:38;100420.53;;;9.17;100.00
69842;BME280;57138;51.326;-0.068;2023-11-21T11:56:27;100422.16;;;9.26;100.00
69842;BME280;57138;51.326;-0.068;2023-11-21T11:58:56;100422.16;;;9.26;100.00
69842;BME280;57138;51.326;-0.068;2023-11-21T12:01:24;100418.84;;;9.24;100.00
69842;BME280;57138;51.326;-0.068;2023-11-21T12:06:42;100437.19;;;9.19;100.00
69842;BME280;57138;51.326;-0.068;2023-11-21T12:09:17;100425.22;;;9.15;100.00
69842;BME280;57138;51.326;-0.068;2023-11-21T12:11:43;100433.69;;;9.18;100.00
69842;BME280;57138;51.326;-0.068;2023-11-21T12:14:09;100427.19;;;9.21;100.00
69842;BME280;57138;51.326;-0.068;2023-11-21T12:16:35;100435.56;;;9.18;100.00
69842;BME280;57138;51.326;-0.068;2023-11-21T12:19:00;100438.16;;;9.26;100.00
69842;BME280;57138;51.326;-0.068;2023-11-21T12:21:26;100430.69;;;9.22;100.00
69842;BME280;57138;51.326;-0.068;2023-11-21T12:23:52;100441.84;;;9.25;100.00
69842;BME280;57138;51.326;-0.068;2023-11-21T12:26:18;100452.50;;;9.25;100.00
69842;BME280;57138;51.326;-0.068;2023-11-21T12:28:43;100452.16;;;9.28;100.00
69842;BME280;57138;51.326;-0.068;2023-11-21T12:31:08;100461.53;;;9.24;100.00
69842;BME280;57138;51.326;-0.068;2023-11-21T12:33:36;100467.81;;;9.31;100.00
69842;BME280;57138;51.326;-0.068;2023-11-21T12:36:01;100476.50;;;9.33;100.00
69842;BME280;57138;51.326;-0.068;2023-11-21T12:38:34;100484.84;;;9.30;100.00
69842;BME280;57138;51.326;-0.068;2023-11-21T12:41:00;100479.00;;;9.35;100.00
69842;BME280;57138;51.326;-0.068;2023-11-21T12:43:26;100484.97;;;9.37;100.00
69842;BME280;57138;51.326;-0.068;2023-11-21T12:46:07;100502.16;;;9.34;100.00
69842;BME280;57138;51.326;-0.068;2023-11-21T12:48:37;100492.16;;;9.37;100.00
69842;BME280;57138;51.326;-0.068;2023-11-21T12:51:04;100496.31;;;9.39;100.00
69842;BME280;57138;51.326;-0.068;2023-11-21T12:53:29;100506.28;;;9.45;100.00
69842;BME280;57138;51.326;-0.068;2023-11-21T12:56:06;100501.81;;;9.46;100.00